sensor_id;sensor_type;location;lat;lon;timestamp;temperature;humidity
21090;DHT22;10703;51.020;6.128;2022-07-23T00:00:13;15.60;99.90
21090;DHT22;10703;51.020;6.128;2022-07-23T00:02:40;15.60;99.90
21090;DHT22;10703;51.020;6.128;2022-07-23T00:05:07;15.70;99.90
21090;DHT22;10703;51.020;6.128;2022-07-23T00:07:34;15.60;99.90
21090;DHT22;10703;51.020;6.128;2022-07-23T00:10:02;15.70;99.90
21090;DHT22;10703;51.020;6.128;2022-07-23T00:12:28;15.70;99.90
21090;DHT22;10703;51.020;6.128;2022-07-23T00:14:55;15.60;99.90
21090;DHT22;10703;51.020;6.128;2022-07-23T00:17:22;15.60;99.90
21090;DHT22;10703;51.020;6.128;2022-07-23T00:19:48;15.50;99.90
21090;DHT22;10703;51.020;6.128;2022-07-23T00:22:15;15.40;99.90
21090;DHT22;10703;51.020;6.128;2022-07-23T00:24:42;15.50;99.90
21090;DHT22;10703;51.020;6.128;2022-07-23T00:27:08;15.40;99.90
21090;DHT22;10703;51.020;6.128;2022-07-23T00:29:35;15.40;99.90
21090;DHT22;10703;51.020;6.128;2022-07-23T00:32:01;15.30;99.90
21090;DHT22;10703;51.020;6.128;2022-07-23T00:34:28;15.20;99.90
21090;DHT22;10703;51.020;6.128;2022-07-23T00:36:55;15.20;99.90
21090;DHT22;10703;51.020;6.128;2022-07-23T00:39:22;15.10;99.90
21090;DHT22;10703;51.020;6.128;2022-07-23T00:41:50;15.10;99.90
21090;DHT22;10703;51.020;6.128;2022-07-23T00:44:22;15.00;99.90
21090;DHT22;10703;51.020;6.128;2022-07-23T00:46:57;15.00;99.90
21090;DHT22;10703;51.020;6.128;2022-07-23T00:49:27;14.90;99.90
21090;DHT22;10703;51.020;6.128;2022-07-23T00:51:56;15.00;99.90
21090;DHT22;10703;51.020;6.128;2022-07-23T00:54:26;14.80;99.90
21090;DHT22;10703;51.020;6.128;2022-07-23T00:56:54;14.70;99.90
21090;DHT22;10703;51.020;6.128;2022-07-23T00:59:21;14.70;99.90
21090;DHT22;10703;51.020;6.128;2022-07-23T01:01:48;14.70;99.90
21090;DHT22;10703;51.020;6.128;2022-07-23T01:04:16;14.70;99.90
21090;DHT22;10703;51.020;6.128;2022-07-23T01:06:43;14.70;99.90
21090;DHT22;10703;51.020;6.128;2022-07-23T01:09:11;14.60;99.90
21090;DHT22;10703;51.020;6.128;2022-07-23T01:11:38;14.60;99.90
21090;DHT22;10703;51.020;6.128;2022-07-23T01:14:13;14.60;99.90
21090;DHT22;10703;51.020;6.128;2022-07-23T01:16:41;14.50;99.90
21090;DHT22;10703;51.020;6.128;2022-07-23T01:19:09;14.50;99.90
21090;DHT22;10703;51.020;6.128;2022-07-23T01:21:38;14.40;99.90
21090;DHT22;10703;51.020;6.128;2022-07-23T01:24:05;14.40;99.90
21090;DHT22;10703;51.020;6.128;2022-07-23T01:26:33;14.40;99.90
21090;DHT22;10703;51.020;6.128;2022-07-23T01:28:59;14.40;99.90
21090;DHT22;10703;51.020;6.128;2022-07-23T01:31:27;14.40;99.90
21090;DHT22;10703;51.020;6.128;2022-07-23T01:33:57;14.40;99.90
21090;DHT22;10703;51.020;6.128;2022-07-23T01:36:26;14.60;99.90
21090;DHT22;10703;51.020;6.128;2022-07-23T01:38:53;14.40;99.90
21090;DHT22;10703;51.020;6.128;2022-07-23T01:41:19;14.40;99.90
21090;DHT22;10703;51.020;6.128;2022-07-23T01:43:46;14.40;99.90
21090;DHT22;10703;51.020;6.128;2022-07-23T01:46:13;14.30;99.90
21090;DHT22;10703;51.020;6.128;2022-07-23T01:48:40;14.30;99.90
21090;DHT22;10703;51.020;6.128;2022-07-23T01:51:07;14.20;99.90
21090;DHT22;10703;51.020;6.128;2022-07-23T01:53:34;14.10;99.90
21090;DHT22;10703;51.020;6.128;2022-07-23T01:56:00;14.10;99.90
21090;DHT22;10703;51.020;6.128;2022-07-23T01:58:27;14.10;99.90
21090;DHT22;10703;51.020;6.128;2022-07-23T02:00:55;14.00;99.90
21090;DHT22;10703;51.020;6.128;2022-07-23T02:03:22;14.10;99.90
21090;DHT22;10703;51.020;6.128;2022-07-23T02:05:49;14.10;99.90
21090;DHT22;10703;51.020;6.128;2022-07-23T02:08:17;14.10;99.90
21090;DHT22;10703;51.020;6.128;2022-07-23T02:10:44;14.10;99.90
21090;DHT22;10703;51.020;6.128;2022-07-23T02:13:12;14.20;99.90
21090;DHT22;10703;51.020;6.128;2022-07-23T02:15:46;14.00;99.90
21090;DHT22;10703;51.020;6.128;2022-07-23T02:18:13;13.80;99.90
21090;DHT22;10703;51.020;6.128;2022-07-23T02:20:41;13.80;99.90
21090;DHT22;10703;51.020;6.128;2022-07-23T02:23:08;13.90;99.90
21090;DHT22;10703;51.020;6.128;2022-07-23T02:25:34;13.90;99.90
21090;DHT22;10703;51.020;6.128;2022-07-23T02:28:02;13.80;99.90
21090;DHT22;10703;51.020;6.128;2022-07-23T02:30:29;13.90;99.90
21090;DHT22;10703;51.020;6.128;2022-07-23T02:32:56;13.80;99.90
21090;DHT22;10703;51.020;6.128;2022-07-23T02:35:23;13.70;99.90
21090;DHT22;10703;51.020;6.128;2022-07-23T02:37:49;13.70;99.90
21090;DHT22;10703;51.020;6.128;2022-07-23T02:40:17;13.60;99.90
21090;DHT22;10703;51.020;6.128;2022-07-23T02:42:44;13.60;99.90
21090;DHT22;10703;51.020;6.128;2022-07-23T02:45:10;13.50;99.90
21090;DHT22;10703;51.020;6.128;2022-07-23T02:47:37;13.40;99.90
21090;DHT22;10703;51.020;6.128;2022-07-23T02:50:04;13.40;99.90
21090;DHT22;10703;51.020;6.128;2022-07-23T02:52:32;13.40;99.90
21090;DHT22;10703;51.020;6.128;2022-07-23T02:54:58;13.50;99.90
21090;DHT22;10703;51.020;6.128;2022-07-23T02:57:25;13.50;99.90
21090;DHT22;10703;51.020;6.128;2022-07-23T02:59:52;13.60;99.90
21090;DHT22;10703;51.020;6.128;2022-07-23T03:02:19;13.50;99.90
21090;DHT22;10703;51.020;6.128;2022-07-23T03:04:45;13.50;99.90
21090;DHT22;10703;51.020;6.128;2022-07-23T03:07:12;13.40;99.90
21090;DHT22;10703;51.020;6.128;2022-07-23T03:09:39;13.30;99.90
21090;DHT22;10703;51.020;6.128;2022-07-23T03:12:06;13.30;99.90
21090;DHT22;10703;51.020;6.128;2022-07-23T03:14:40;13.20;99.90
21090;DHT22;10703;51.020;6.128;2022-07-23T03:17:08;13.10;99.90
21090;DHT22;10703;51.020;6.128;2022-07-23T03:19:34;13.00;99.90
21090;DHT22;10703;51.020;6.128;2022-07-23T03:22:01;13.10;99.90
21090;DHT22;10703;51.020;6.128;2022-07-23T03:24:28;13.10;99.90
21090;DHT22;10703;51.020;6.128;2022-07-23T03:27:13;13.00;99.90
21090;DHT22;10703;51.020;6.128;2022-07-23T03:29:40;12.90;99.90
21090;DHT22;10703;51.020;6.128;2022-07-23T03:32:06;12.90;99.90
21090;DHT22;10703;51.020;6.128;2022-07-23T03:34:33;12.80;99.90
21090;DHT22;10703;51.020;6.128;2022-07-23T03:37:00;12.80;99.90
21090;DHT22;10703;51.020;6.128;2022-07-23T03:39:28;12.80;99.90
21090;DHT22;10703;51.020;6.128;2022-07-23T03:41:55;12.80;99.90
21090;DHT22;10703;51.020;6.128;2022-07-23T03:44:22;12.80;99.90
21090;DHT22;10703;51.020;6.128;2022-07-23T03:46:49;12.90;99.90
21090;DHT22;10703;51.020;6.128;2022-07-23T03:49:16;12.80;99.90
21090;DHT22;10703;51.020;6.128;2022-07-23T03:51:45;12.80;99.90
21090;DHT22;10703;51.020;6.128;2022-07-23T03:54:12;12.80;99.90
21090;DHT22;10703;51.020;6.128;2022-07-23T03:56:38;12.80;99.90
21090;DHT22;10703;51.020;6.128;2022-07-23T03:59:05;12.80;99.90
21090;DHT22;10703;51.020;6.128;2022-07-23T04:01:32;12.80;99.90
21090;DHT22;10703;51.020;6.128;2022-07-23T04:03:59;12.80;99.90
21090;DHT22;10703;51.020;6.128;2022-07-23T04:06:26;12.70;99.90
21090;DHT22;10703;51.020;6.128;2022-07-23T04:08:53;12.70;99.90
21090;DHT22;10703;51.020;6.128;2022-07-23T04:11:20;12.60;99.90
21090;DHT22;10703;51.020;6.128;2022-07-23T04:13:46;12.60;99.90
21090;DHT22;10703;51.020;6.128;2022-07-23T04:16:13;12.60;99.90
21090;DHT22;10703;51.020;6.128;2022-07-23T04:18:40;12.70;99.90
21090;DHT22;10703;51.020;6.128;2022-07-23T04:21:06;12.70;99.90
21090;DHT22;10703;51.020;6.128;2022-07-23T04:23:33;12.80;99.90
21090;DHT22;10703;51.020;6.128;2022-07-23T04:26:00;12.80;99.90
21090;DHT22;10703;51.020;6.128;2022-07-23T04:28:27;12.80;99.90
21090;DHT22;10703;51.020;6.128;2022-07-23T04:30:58;12.80;99.90
21090;DHT22;10703;51.020;6.128;2022-07-23T04:33:25;12.80;99.90
21090;DHT22;10703;51.020;6.128;2022-07-23T04:35:52;12.80;99.90
21090;DHT22;10703;51.020;6.128;2022-07-23T04:38:18;12.90;99.90
21090;DHT22;10703;51.020;6.128;2022-07-23T04:40:45;12.90;99.90
21090;DHT22;10703;51.020;6.128;2022-07-23T04:43:12;13.00;99.90
21090;DHT22;10703;51.020;6.128;2022-07-23T04:45:39;13.00;99.90
21090;DHT22;10703;51.020;6.128;2022-07-23T04:48:05;13.10;99.90
21090;DHT22;10703;51.020;6.128;2022-07-23T04:50:32;13.10;99.90
21090;DHT22;10703;51.020;6.128;2022-07-23T04:52:59;13.10;99.90
21090;DHT22;10703;51.020;6.128;2022-07-23T04:55:26;13.20;99.90
21090;DHT22;10703;51.020;6.128;2022-07-23T04:57:53;13.30;99.90
21090;DHT22;10703;51.020;6.128;2022-07-23T05:00:19;13.40;99.90
21090;DHT22;10703;51.020;6.128;2022-07-23T05:02:46;13.40;99.90
21090;DHT22;10703;51.020;6.128;2022-07-23T05:05:13;13.50;99.90
21090;DHT22;10703;51.020;6.128;2022-07-23T05:07:39;13.60;99.90
21090;DHT22;10703;51.020;6.128;2022-07-23T05:10:06;13.70;99.90
21090;DHT22;10703;51.020;6.128;2022-07-23T05:12:33;13.70;99.90
21090;DHT22;10703;51.020;6.128;2022-07-23T05:15:00;13.80;99.90
21090;DHT22;10703;51.020;6.128;2022-07-23T05:17:26;14.00;99.90
21090;DHT22;10703;51.020;6.128;2022-07-23T05:19:53;13.90;99.90
21090;DHT22;10703;51.020;6.128;2022-07-23T05:22:26;14.00;99.90
21090;DHT22;10703;51.020;6.128;2022-07-23T05:24:52;14.20;99.90
21090;DHT22;10703;51.020;6.128;2022-07-23T05:27:19;14.20;99.90
21090;DHT22;10703;51.020;6.128;2022-07-23T05:29:46;14.30;99.90
21090;DHT22;10703;51.020;6.128;2022-07-23T05:32:13;14.40;99.90
21090;DHT22;10703;51.020;6.128;2022-07-23T05:34:39;14.40;99.90
21090;DHT22;10703;51.020;6.128;2022-07-23T05:37:06;14.50;99.90
21090;DHT22;10703;51.020;6.128;2022-07-23T05:39:33;14.60;99.90
21090;DHT22;10703;51.020;6.128;2022-07-23T05:41:59;14.70;99.90
21090;DHT22;10703;51.020;6.128;2022-07-23T05:44:26;14.80;99.90
21090;DHT22;10703;51.020;6.128;2022-07-23T05:47:00;14.90;99.90
21090;DHT22;10703;51.020;6.128;2022-07-23T05:49:27;14.90;99.90
21090;DHT22;10703;51.020;6.128;2022-07-23T05:51:54;15.00;99.90
21090;DHT22;10703;51.020;6.128;2022-07-23T05:54:20;15.00;99.90
21090;DHT22;10703;51.020;6.128;2022-07-23T05:56:47;15.00;99.90
21090;DHT22;10703;51.020;6.128;2022-07-23T05:59:14;15.10;99.90
21090;DHT22;10703;51.020;6.128;2022-07-23T06:01:41;15.20;99.90
21090;DHT22;10703;51.020;6.128;2022-07-23T06:04:08;15.30;99.90
21090;DHT22;10703;51.020;6.128;2022-07-23T06:06:35;15.40;99.90
21090;DHT22;10703;51.020;6.128;2022-07-23T06:09:02;15.50;99.90
21090;DHT22;10703;51.020;6.128;2022-07-23T06:11:29;15.60;99.90
21090;DHT22;10703;51.020;6.128;2022-07-23T06:13:56;15.60;99.90
21090;DHT22;10703;51.020;6.128;2022-07-23T06:16:22;15.80;99.90
21090;DHT22;10703;51.020;6.128;2022-07-23T06:18:49;15.90;99.90
21090;DHT22;10703;51.020;6.128;2022-07-23T06:21:16;15.90;99.90
21090;DHT22;10703;51.020;6.128;2022-07-23T06:24:03;16.00;99.90
21090;DHT22;10703;51.020;6.128;2022-07-23T06:26:29;16.10;99.90
21090;DHT22;10703;51.020;6.128;2022-07-23T06:28:56;16.30;99.90
21090;DHT22;10703;51.020;6.128;2022-07-23T06:31:23;16.20;99.90
21090;DHT22;10703;51.020;6.128;2022-07-23T06:33:50;16.30;99.90
21090;DHT22;10703;51.020;6.128;2022-07-23T06:36:17;16.40;99.90
21090;DHT22;10703;51.020;6.128;2022-07-23T06:38:44;16.50;99.90
21090;DHT22;10703;51.020;6.128;2022-07-23T06:41:11;16.70;99.90
21090;DHT22;10703;51.020;6.128;2022-07-23T06:43:37;16.90;99.90
21090;DHT22;10703;51.020;6.128;2022-07-23T06:46:04;17.00;99.90
21090;DHT22;10703;51.020;6.128;2022-07-23T06:48:31;17.20;99.90
21090;DHT22;10703;51.020;6.128;2022-07-23T06:50:58;17.20;99.90
21090;DHT22;10703;51.020;6.128;2022-07-23T06:53:25;17.40;99.90
21090;DHT22;10703;51.020;6.128;2022-07-23T06:55:51;17.80;99.90
21090;DHT22;10703;51.020;6.128;2022-07-23T06:58:18;18.40;99.90
21090;DHT22;10703;51.020;6.128;2022-07-23T07:00:46;18.90;99.90
21090;DHT22;10703;51.020;6.128;2022-07-23T07:03:13;19.40;99.90
21090;DHT22;10703;51.020;6.128;2022-07-23T07:05:39;19.80;99.90
21090;DHT22;10703;51.020;6.128;2022-07-23T07:08:06;20.00;99.90
21090;DHT22;10703;51.020;6.128;2022-07-23T07:10:33;20.50;99.90
21090;DHT22;10703;51.020;6.128;2022-07-23T07:13:00;20.90;99.90
21090;DHT22;10703;51.020;6.128;2022-07-23T07:15:26;21.30;99.90
21090;DHT22;10703;51.020;6.128;2022-07-23T07:17:53;21.60;99.90
21090;DHT22;10703;51.020;6.128;2022-07-23T07:20:20;21.90;99.90
21090;DHT22;10703;51.020;6.128;2022-07-23T07:22:46;22.30;99.90
21090;DHT22;10703;51.020;6.128;2022-07-23T07:25:13;22.90;99.90
21090;DHT22;10703;51.020;6.128;2022-07-23T07:27:40;23.10;99.90
21090;DHT22;10703;51.020;6.128;2022-07-23T07:30:07;23.40;99.90
21090;DHT22;10703;51.020;6.128;2022-07-23T07:32:34;23.30;99.90
21090;DHT22;10703;51.020;6.128;2022-07-23T07:35:22;23.40;99.90
21090;DHT22;10703;51.020;6.128;2022-07-23T07:37:49;23.70;99.90
21090;DHT22;10703;51.020;6.128;2022-07-23T07:40:16;23.70;99.90
21090;DHT22;10703;51.020;6.128;2022-07-23T07:42:47;23.70;99.90
21090;DHT22;10703;51.020;6.128;2022-07-23T07:45:14;23.80;99.90
21090;DHT22;10703;51.020;6.128;2022-07-23T07:47:42;24.40;99.90
21090;DHT22;10703;51.020;6.128;2022-07-23T07:50:09;24.60;99.90
21090;DHT22;10703;51.020;6.128;2022-07-23T07:52:37;24.80;99.90
21090;DHT22;10703;51.020;6.128;2022-07-23T07:55:06;24.50;99.90
21090;DHT22;10703;51.020;6.128;2022-07-23T07:57:33;24.70;99.90
21090;DHT22;10703;51.020;6.128;2022-07-23T07:59:59;24.90;99.90
21090;DHT22;10703;51.020;6.128;2022-07-23T08:02:50;25.10;99.90
21090;DHT22;10703;51.020;6.128;2022-07-23T08:05:28;25.50;99.90
21090;DHT22;10703;51.020;6.128;2022-07-23T08:07:56;25.50;99.90
21090;DHT22;10703;51.020;6.128;2022-07-23T08:10:24;25.20;99.90
21090;DHT22;10703;51.020;6.128;2022-07-23T08:12:53;25.20;99.90
21090;DHT22;10703;51.020;6.128;2022-07-23T08:15:23;25.00;99.90
21090;DHT22;10703;51.020;6.128;2022-07-23T08:17:50;25.20;99.90
21090;DHT22;10703;51.020;6.128;2022-07-23T08:20:21;25.60;99.90
21090;DHT22;10703;51.020;6.128;2022-07-23T08:22:52;25.90;99.90
21090;DHT22;10703;51.020;6.128;2022-07-23T08:25:40;26.20;99.90
21090;DHT22;10703;51.020;6.128;2022-07-23T08:28:12;26.20;99.90
21090;DHT22;10703;51.020;6.128;2022-07-23T08:30:41;26.70;99.90
21090;DHT22;10703;51.020;6.128;2022-07-23T08:33:14;26.80;99.90
21090;DHT22;10703;51.020;6.128;2022-07-23T08:35:59;26.80;99.90
21090;DHT22;10703;51.020;6.128;2022-07-23T08:38:26;26.70;99.90
21090;DHT22;10703;51.020;6.128;2022-07-23T08:40:55;26.30;99.90
21090;DHT22;10703;51.020;6.128;2022-07-23T08:43:26;26.50;99.90
21090;DHT22;10703;51.020;6.128;2022-07-23T08:45:55;27.00;99.90
21090;DHT22;10703;51.020;6.128;2022-07-23T08:48:32;27.10;99.90
21090;DHT22;10703;51.020;6.128;2022-07-23T08:51:01;27.10;99.90
21090;DHT22;10703;51.020;6.128;2022-07-23T08:53:29;27.30;99.90
21090;DHT22;10703;51.020;6.128;2022-07-23T08:55:58;27.70;99.90
21090;DHT22;10703;51.020;6.128;2022-07-23T08:58:25;27.40;99.90
21090;DHT22;10703;51.020;6.128;2022-07-23T09:00:54;27.40;99.90
21090;DHT22;10703;51.020;6.128;2022-07-23T09:03:34;27.70;99.90
21090;DHT22;10703;51.020;6.128;2022-07-23T09:06:01;27.90;99.90
21090;DHT22;10703;51.020;6.128;2022-07-23T09:08:42;27.90;99.90
21090;DHT22;10703;51.020;6.128;2022-07-23T09:11:16;28.00;99.90
21090;DHT22;10703;51.020;6.128;2022-07-23T09:13:47;28.40;99.90
21090;DHT22;10703;51.020;6.128;2022-07-23T09:16:16;28.10;99.90
21090;DHT22;10703;51.020;6.128;2022-07-23T09:18:47;27.90;99.90
21090;DHT22;10703;51.020;6.128;2022-07-23T09:21:20;28.30;99.90
21090;DHT22;10703;51.020;6.128;2022-07-23T09:23:59;28.10;99.90
21090;DHT22;10703;51.020;6.128;2022-07-23T09:29:19;28.40;99.90
21090;DHT22;10703;51.020;6.128;2022-07-23T09:31:53;28.70;99.90
21090;DHT22;10703;51.020;6.128;2022-07-23T09:34:26;28.90;99.90
21090;DHT22;10703;51.020;6.128;2022-07-23T09:36:58;29.00;99.90
21090;DHT22;10703;51.020;6.128;2022-07-23T09:39:34;29.30;99.90
21090;DHT22;10703;51.020;6.128;2022-07-23T09:42:18;29.30;99.90
21090;DHT22;10703;51.020;6.128;2022-07-23T09:44:48;29.30;99.90
21090;DHT22;10703;51.020;6.128;2022-07-23T09:47:15;29.00;99.90
21090;DHT22;10703;51.020;6.128;2022-07-23T09:50:07;29.20;99.90
21090;DHT22;10703;51.020;6.128;2022-07-23T09:52:49;29.70;99.90
21090;DHT22;10703;51.020;6.128;2022-07-23T09:55:17;29.80;99.90
21090;DHT22;10703;51.020;6.128;2022-07-23T09:57:46;30.10;99.90
21090;DHT22;10703;51.020;6.128;2022-07-23T10:00:23;30.30;99.90
21090;DHT22;10703;51.020;6.128;2022-07-23T10:02:50;30.00;99.90
21090;DHT22;10703;51.020;6.128;2022-07-23T10:05:19;30.70;99.90
21090;DHT22;10703;51.020;6.128;2022-07-23T10:07:46;31.10;99.90
21090;DHT22;10703;51.020;6.128;2022-07-23T10:10:19;30.20;99.90
21090;DHT22;10703;51.020;6.128;2022-07-23T10:12:47;30.80;99.90
21090;DHT22;10703;51.020;6.128;2022-07-23T10:15:32;31.30;99.90
21090;DHT22;10703;51.020;6.128;2022-07-23T10:17:59;31.60;99.30
21090;DHT22;10703;51.020;6.128;2022-07-23T10:20:26;31.10;99.10
21090;DHT22;10703;51.020;6.128;2022-07-23T10:23:31;32.00;99.60
21090;DHT22;10703;51.020;6.128;2022-07-23T10:26:19;32.00;98.40
21090;DHT22;10703;51.020;6.128;2022-07-23T10:31:58;31.90;95.50
21090;DHT22;10703;51.020;6.128;2022-07-23T10:34:51;32.20;96.50
21090;DHT22;10703;51.020;6.128;2022-07-23T10:37:26;32.30;96.60
21090;DHT22;10703;51.020;6.128;2022-07-23T10:40:19;32.10;96.00
21090;DHT22;10703;51.020;6.128;2022-07-23T10:42:50;32.30;95.20
21090;DHT22;10703;51.020;6.128;2022-07-23T10:45:23;32.90;95.90
21090;DHT22;10703;51.020;6.128;2022-07-23T10:47:51;33.00;96.30
21090;DHT22;10703;51.020;6.128;2022-07-23T10:50:20;32.90;96.90
21090;DHT22;10703;51.020;6.128;2022-07-23T10:58:02;32.90;95.10
21090;DHT22;10703;51.020;6.128;2022-07-23T11:00:35;33.10;95.60
21090;DHT22;10703;51.020;6.128;2022-07-23T11:03:06;33.40;94.60
21090;DHT22;10703;51.020;6.128;2022-07-23T11:05:51;33.30;94.30
21090;DHT22;10703;51.020;6.128;2022-07-23T11:08:19;33.80;94.30
21090;DHT22;10703;51.020;6.128;2022-07-23T11:10:52;34.10;94.50
21090;DHT22;10703;51.020;6.128;2022-07-23T11:26:51;34.40;93.20
21090;DHT22;10703;51.020;6.128;2022-07-23T11:29:42;34.20;92.80
21090;DHT22;10703;51.020;6.128;2022-07-23T11:32:24;34.70;91.60
21090;DHT22;10703;51.020;6.128;2022-07-23T11:34:52;34.60;91.60
21090;DHT22;10703;51.020;6.128;2022-07-23T11:37:32;34.60;91.90
21090;DHT22;10703;51.020;6.128;2022-07-23T11:40:03;34.60;92.80
21090;DHT22;10703;51.020;6.128;2022-07-23T11:42:30;34.90;91.70
21090;DHT22;10703;51.020;6.128;2022-07-23T11:44:57;35.20;91.60
21090;DHT22;10703;51.020;6.128;2022-07-23T11:47:26;35.00;92.20
21090;DHT22;10703;51.020;6.128;2022-07-23T11:49:57;35.20;91.80
21090;DHT22;10703;51.020;6.128;2022-07-23T11:52:25;34.80;92.00
21090;DHT22;10703;51.020;6.128;2022-07-23T11:55:07;33.80;91.40
21090;DHT22;10703;51.020;6.128;2022-07-23T11:57:39;34.70;90.90
21090;DHT22;10703;51.020;6.128;2022-07-23T12:00:16;34.70;90.40
21090;DHT22;10703;51.020;6.128;2022-07-23T12:02:47;34.90;90.50
21090;DHT22;10703;51.020;6.128;2022-07-23T12:05:19;35.00;90.50
21090;DHT22;10703;51.020;6.128;2022-07-23T12:07:48;34.80;90.50
21090;DHT22;10703;51.020;6.128;2022-07-23T12:12:50;35.50;90.00
21090;DHT22;10703;51.020;6.128;2022-07-23T12:15:20;35.60;86.70
21090;DHT22;10703;51.020;6.128;2022-07-23T12:17:50;34.50;86.90
21090;DHT22;10703;51.020;6.128;2022-07-23T12:20:21;34.80;88.30
21090;DHT22;10703;51.020;6.128;2022-07-23T12:22:51;35.20;86.80
21090;DHT22;10703;51.020;6.128;2022-07-23T12:25:23;35.40;87.30
21090;DHT22;10703;51.020;6.128;2022-07-23T12:28:12;34.80;86.60
21090;DHT22;10703;51.020;6.128;2022-07-23T12:33:07;35.50;86.70
21090;DHT22;10703;51.020;6.128;2022-07-23T12:35:40;35.10;86.60
21090;DHT22;10703;51.020;6.128;2022-07-23T12:38:13;34.50;87.70
21090;DHT22;10703;51.020;6.128;2022-07-23T12:40:45;34.40;87.10
21090;DHT22;10703;51.020;6.128;2022-07-23T12:45:49;35.00;86.50
21090;DHT22;10703;51.020;6.128;2022-07-23T12:48:18;35.30;85.50
21090;DHT22;10703;51.020;6.128;2022-07-23T12:50:55;35.50;86.00
21090;DHT22;10703;51.020;6.128;2022-07-23T12:53:25;36.00;86.50
21090;DHT22;10703;51.020;6.128;2022-07-23T12:56:02;36.60;85.50
21090;DHT22;10703;51.020;6.128;2022-07-23T13:06:42;37.50;83.30
21090;DHT22;10703;51.020;6.128;2022-07-23T13:09:13;37.70;84.80
21090;DHT22;10703;51.020;6.128;2022-07-23T13:11:42;37.20;82.90
21090;DHT22;10703;51.020;6.128;2022-07-23T13:14:09;36.70;84.40
21090;DHT22;10703;51.020;6.128;2022-07-23T13:16:36;36.00;82.10
21090;DHT22;10703;51.020;6.128;2022-07-23T13:19:04;36.20;83.10
21090;DHT22;10703;51.020;6.128;2022-07-23T13:21:37;36.80;81.50
21090;DHT22;10703;51.020;6.128;2022-07-23T13:24:03;36.60;80.30
21090;DHT22;10703;51.020;6.128;2022-07-23T13:26:35;37.60;79.50
21090;DHT22;10703;51.020;6.128;2022-07-23T13:29:02;37.60;81.30
21090;DHT22;10703;51.020;6.128;2022-07-23T13:31:29;37.70;80.40
21090;DHT22;10703;51.020;6.128;2022-07-23T13:33:56;37.40;81.60
21090;DHT22;10703;51.020;6.128;2022-07-23T13:36:23;36.90;80.90
21090;DHT22;10703;51.020;6.128;2022-07-23T13:38:50;36.80;80.00
21090;DHT22;10703;51.020;6.128;2022-07-23T13:41:18;36.90;83.20
21090;DHT22;10703;51.020;6.128;2022-07-23T13:43:45;37.00;80.90
21090;DHT22;10703;51.020;6.128;2022-07-23T13:46:13;37.00;80.20
21090;DHT22;10703;51.020;6.128;2022-07-23T13:48:40;37.00;80.90
21090;DHT22;10703;51.020;6.128;2022-07-23T13:51:07;37.70;80.00
21090;DHT22;10703;51.020;6.128;2022-07-23T13:53:36;37.80;79.00
21090;DHT22;10703;51.020;6.128;2022-07-23T13:56:03;38.60;79.10
21090;DHT22;10703;51.020;6.128;2022-07-23T13:58:30;38.20;78.50
21090;DHT22;10703;51.020;6.128;2022-07-23T14:00:58;38.60;77.70
21090;DHT22;10703;51.020;6.128;2022-07-23T14:03:25;39.60;77.00
21090;DHT22;10703;51.020;6.128;2022-07-23T14:05:53;39.80;74.80
21090;DHT22;10703;51.020;6.128;2022-07-23T14:08:23;38.80;75.20
21090;DHT22;10703;51.020;6.128;2022-07-23T14:10:50;37.20;75.90
21090;DHT22;10703;51.020;6.128;2022-07-23T14:13:16;37.50;77.60
21090;DHT22;10703;51.020;6.128;2022-07-23T14:15:47;37.80;76.60
21090;DHT22;10703;51.020;6.128;2022-07-23T14:18:16;38.60;76.00
21090;DHT22;10703;51.020;6.128;2022-07-23T14:20:42;39.10;76.00
21090;DHT22;10703;51.020;6.128;2022-07-23T14:23:09;39.30;75.70
21090;DHT22;10703;51.020;6.128;2022-07-23T14:25:38;38.50;76.40
21090;DHT22;10703;51.020;6.128;2022-07-23T14:28:05;37.80;77.60
21090;DHT22;10703;51.020;6.128;2022-07-23T14:30:34;37.30;77.00
21090;DHT22;10703;51.020;6.128;2022-07-23T14:33:01;37.40;78.10
21090;DHT22;10703;51.020;6.128;2022-07-23T14:35:28;37.10;77.10
21090;DHT22;10703;51.020;6.128;2022-07-23T14:37:54;37.00;77.30
21090;DHT22;10703;51.020;6.128;2022-07-23T14:40:23;37.70;77.20
21090;DHT22;10703;51.020;6.128;2022-07-23T14:42:49;38.00;75.80
21090;DHT22;10703;51.020;6.128;2022-07-23T14:45:16;37.00;77.60
21090;DHT22;10703;51.020;6.128;2022-07-23T14:47:45;36.80;77.70
21090;DHT22;10703;51.020;6.128;2022-07-23T14:50:13;37.50;75.70
21090;DHT22;10703;51.020;6.128;2022-07-23T14:52:40;37.50;76.20
21090;DHT22;10703;51.020;6.128;2022-07-23T14:55:07;37.00;77.00
21090;DHT22;10703;51.020;6.128;2022-07-23T14:57:34;37.40;76.70
21090;DHT22;10703;51.020;6.128;2022-07-23T15:00:01;37.40;77.10
21090;DHT22;10703;51.020;6.128;2022-07-23T15:02:28;38.10;77.40
21090;DHT22;10703;51.020;6.128;2022-07-23T15:04:55;38.10;76.40
21090;DHT22;10703;51.020;6.128;2022-07-23T15:07:24;38.40;75.80
21090;DHT22;10703;51.020;6.128;2022-07-23T15:09:53;37.90;76.90
21090;DHT22;10703;51.020;6.128;2022-07-23T15:12:19;36.50;79.20
21090;DHT22;10703;51.020;6.128;2022-07-23T15:14:48;36.50;79.90
21090;DHT22;10703;51.020;6.128;2022-07-23T15:17:15;35.90;78.00
21090;DHT22;10703;51.020;6.128;2022-07-23T15:19:41;35.50;79.00
21090;DHT22;10703;51.020;6.128;2022-07-23T15:22:08;35.90;78.80
21090;DHT22;10703;51.020;6.128;2022-07-23T15:24:35;35.90;79.80
21090;DHT22;10703;51.020;6.128;2022-07-23T15:27:02;35.50;79.70
21090;DHT22;10703;51.020;6.128;2022-07-23T15:29:30;35.20;78.20
21090;DHT22;10703;51.020;6.128;2022-07-23T15:31:56;35.90;79.20
21090;DHT22;10703;51.020;6.128;2022-07-23T15:34:26;36.10;77.00
21090;DHT22;10703;51.020;6.128;2022-07-23T15:36:52;36.90;76.50
21090;DHT22;10703;51.020;6.128;2022-07-23T15:39:19;37.10;75.80
21090;DHT22;10703;51.020;6.128;2022-07-23T15:41:46;37.50;76.10
21090;DHT22;10703;51.020;6.128;2022-07-23T15:44:14;37.70;74.80
21090;DHT22;10703;51.020;6.128;2022-07-23T15:46:58;38.10;74.90
21090;DHT22;10703;51.020;6.128;2022-07-23T15:49:26;37.80;74.10
21090;DHT22;10703;51.020;6.128;2022-07-23T15:51:53;37.70;75.00
21090;DHT22;10703;51.020;6.128;2022-07-23T15:54:21;37.30;75.80
21090;DHT22;10703;51.020;6.128;2022-07-23T15:56:48;36.70;78.60
21090;DHT22;10703;51.020;6.128;2022-07-23T15:59:16;35.70;77.90
21090;DHT22;10703;51.020;6.128;2022-07-23T16:01:42;35.30;79.10
21090;DHT22;10703;51.020;6.128;2022-07-23T16:04:09;35.20;80.10
21090;DHT22;10703;51.020;6.128;2022-07-23T16:06:36;35.40;78.60
21090;DHT22;10703;51.020;6.128;2022-07-23T16:09:03;35.70;78.30
21090;DHT22;10703;51.020;6.128;2022-07-23T16:11:34;35.00;78.10
21090;DHT22;10703;51.020;6.128;2022-07-23T16:14:01;35.30;79.80
21090;DHT22;10703;51.020;6.128;2022-07-23T16:16:27;35.10;78.30
21090;DHT22;10703;51.020;6.128;2022-07-23T16:18:55;34.90;78.30
21090;DHT22;10703;51.020;6.128;2022-07-23T16:21:22;34.80;78.80